ANA753 RJTT-RJCC
Flight info
| Callsign | ANA753 |
|---|---|
| Flight time | N/A |
| Altitude | 39000 |
| Route | BRUCE AGRIS Y11 SAMBO Y119 OHMAR Y13 SIRAO Y139 NAVER |
| Aircraft | B77L/H-SDE1E2E3FGHIJ2J3J4J5M1RWXY/LB1D1 |
Departure
| Time | N/A |
|---|---|
| Airport | Tokyo Haneda International Airport (RJTT) |
Arrival
| Time | 2026-04-30 18:11 |
|---|---|
| Airport | New Chitose Airport (RJCC) |
| Time | Latitude | Longitude | Altitude | Speed | Heading |
|---|---|---|---|---|---|
| 2026-04-30 17:39 | 40.98796 | 140.97742 | 35650 ft | 459 kts | 347° |
| 2026-04-30 17:41 | 41.23403 | 140.98553 | 32277 ft | 426 kts | 349° |
| 2026-04-30 17:42 | 41.29245 | 140.98846 | 31464 ft | 415 kts | 354° |
| 2026-04-30 17:42 | 41.37489 | 141.02058 | 30417 ft | 414 kts | 14° |
| 2026-04-30 17:43 | 41.42878 | 141.04927 | 29659 ft | 423 kts | 11° |
| 2026-04-30 17:44 | 41.51153 | 141.08785 | 28476 ft | 416 kts | 12° |
| 2026-04-30 17:44 | 41.59198 | 141.12717 | 27391 ft | 403 kts | 13° |
| 2026-04-30 17:46 | 41.71991 | 141.19097 | 25665 ft | 384 kts | 14° |
| 2026-04-30 17:47 | 41.81857 | 141.24083 | 24338 ft | 373 kts | 15° |
| 2026-04-30 17:48 | 41.91435 | 141.28939 | 22917 ft | 363 kts | 17° |
| 2026-04-30 17:48 | 41.98022 | 141.33268 | 21932 ft | 341 kts | 39° |
| 2026-04-30 17:49 | 42.04671 | 141.42233 | 20822 ft | 357 kts | 39° |
| 2026-04-30 17:50 | 42.12136 | 141.51482 | 19473 ft | 358 kts | 42° |
| 2026-04-30 17:51 | 42.18098 | 141.56658 | 18529 ft | 334 kts | 24° |
| 2026-04-30 17:52 | 42.24077 | 141.60819 | 17518 ft | 307 kts | 26° |
| 2026-04-30 17:53 | 42.33821 | 141.68046 | 16000 ft | 331 kts | 28° |
| 2026-04-30 17:54 | 42.41331 | 141.73685 | 14770 ft | 294 kts | 28° |
| 2026-04-30 17:55 | 42.48924 | 141.79369 | 13514 ft | 319 kts | 28° |
| 2026-04-30 17:56 | 42.56115 | 141.84798 | 12291 ft | 280 kts | 28° |
| 2026-04-30 17:57 | 42.61844 | 141.87196 | 11416 ft | 309 kts | 352° |
| 2026-04-30 17:58 | 42.67988 | 141.86040 | 10410 ft | 280 kts | 352° |
| 2026-04-30 17:59 | 42.75527 | 141.85172 | 9462 ft | 285 kts | 354° |
| 2026-04-30 18:00 | 42.83068 | 141.84407 | 8284 ft | 266 kts | 349° |
| 2026-04-30 18:00 | 42.88702 | 141.82689 | 7385 ft | 278 kts | 342° |
| 2026-04-30 18:01 | 42.92394 | 141.81337 | 6783 ft | 271 kts | 343° |
| 2026-04-30 18:02 | 42.97822 | 141.79584 | 5876 ft | 267 kts | 345° |
| 2026-04-30 18:02 | 43.02531 | 141.76457 | 5016 ft | 246 kts | 307° |
| 2026-04-30 18:03 | 43.03188 | 141.70439 | 3897 ft | 203 kts | 246° |
| 2026-04-30 18:04 | 43.00693 | 141.66300 | 3121 ft | 178 kts | 224° |
| 2026-04-30 18:05 | 42.96684 | 141.65550 | 3054 ft | 138 kts | 178° |
| 2026-04-30 18:06 | 42.93027 | 141.66176 | 2943 ft | 136 kts | 174° |
| 2026-04-30 18:07 | 42.89487 | 141.66831 | 2231 ft | 127 kts | 172° |
| 2026-04-30 18:08 | 42.86931 | 141.67296 | 1750 ft | 124 kts | 173° |
| 2026-04-30 18:09 | 42.83436 | 141.67946 | 1024 ft | 129 kts | 172° |
| 2026-04-30 18:10 | 42.79860 | 141.68567 | 310 ft | 128 kts | 170° |
| 2026-04-30 18:11 | 42.77521 | 141.69042 | 89 ft | 0 kts | 173° |
| 2026-04-30 18:11 | 42.77094 | 141.68965 | 86 ft | 13 kts | 211° |
| 2026-04-30 18:12 | 42.77425 | 141.68831 | 87 ft | 17 kts | 353° |
| 2026-04-30 18:13 | 42.77589 | 141.68802 | 89 ft | 10 kts | 353° |
| 2026-04-30 18:13 | 42.77826 | 141.68762 | 92 ft | 13 kts | 353° |
| 2026-04-30 18:14 | 42.78002 | 141.68674 | 93 ft | 15 kts | 306° |
| 2026-04-30 18:15 | 42.78156 | 141.68517 | 93 ft | 11 kts | 350° |
| 2026-04-30 18:15 | 42.78427 | 141.68475 | 94 ft | 15 kts | 352° |
| 2026-04-30 18:16 | 42.78526 | 141.68458 | 93 ft | 8 kts | 352° |
| 2026-04-30 18:16 | 42.78568 | 141.68450 | 95 ft | 5 kts | 353° |
| 2026-04-30 18:17 | 42.78609 | 141.68443 | 96 ft | 7 kts | 352° |
| 2026-04-30 18:17 | 42.78645 | 141.68398 | 95 ft | 8 kts | 292° |
| 2026-04-30 18:17 | 42.78673 | 141.68263 | 94 ft | 0 kts | 284° |
| 2026-04-30 18:28 | 42.78841 | 141.68229 | 92 ft | 0 kts | 284° |
| 2026-04-30 18:28 | 42.78669 | 141.68203 | 93 ft | 0 kts | 284° |
| 2026-04-30 18:29 | 42.78678 | 141.68267 | 96 ft | 0 kts | 284° |